createdAt,value
2023-05-07T00:04:31.148Z,8.1
2023-05-07T00:10:08.813Z,8.2
2023-05-07T00:15:45.507Z,8.1
2023-05-07T00:21:24.196Z,7.8
2023-05-07T00:27:00.480Z,7.9
2023-05-07T00:32:52.888Z,7.6
2023-05-07T00:38:45.319Z,7.6
2023-05-07T00:44:37.749Z,7.6
2023-05-07T00:50:14.836Z,7.5
2023-05-07T00:56:05.950Z,7.6
2023-05-07T01:01:59.720Z,7.4
2023-05-07T01:07:58.077Z,7.3
2023-05-07T01:13:35.316Z,7.5
2023-05-07T01:19:27.143Z,7.4
2023-05-07T01:25:19.707Z,7.4
2023-05-07T01:31:11.302Z,7.3
2023-05-07T01:37:03.897Z,7.3
2023-05-07T01:42:56.193Z,7.3
2023-05-07T01:48:48.374Z,7.3
2023-05-07T01:54:41.072Z,6.8
2023-05-07T02:00:32.302Z,6.6
2023-05-07T02:06:25.999Z,6.4
2023-05-07T02:12:17.311Z,6.3
2023-05-07T02:18:10.233Z,6.2
2023-05-07T02:24:04.855Z,6.2
2023-05-07T02:29:57.052Z,5.9
2023-05-07T02:35:48.889Z,5.8
2023-05-07T02:41:40.587Z,5.6
2023-05-07T02:47:32.874Z,5.6
2023-05-07T02:53:26.746Z,5.5
2023-05-07T02:59:19.213Z,5.5
2023-05-07T03:05:13.179Z,5.4
2023-05-07T03:11:04.821Z,5.5
2023-05-07T03:16:57.076Z,5.6
2023-05-07T03:22:50.201Z,5.8
2023-05-07T03:28:43.951Z,5.9
2023-05-07T03:34:35.980Z,6
2023-05-07T03:40:29.759Z,6
2023-05-07T03:46:21.679Z,6.2
2023-05-07T03:52:13.769Z,6.3
2023-05-07T03:58:06.236Z,6.5
2023-05-07T04:03:59.211Z,6.7
2023-05-07T04:09:52.049Z,6.9
2023-05-07T04:15:44.408Z,7.1
2023-05-07T04:21:36.746Z,7.2
2023-05-07T04:27:28.895Z,7.5
2023-05-07T04:33:21.651Z,7.8
2023-05-07T04:39:13.120Z,8
2023-05-07T04:45:05.787Z,8.1
2023-05-07T04:50:58.584Z,8.4
2023-05-07T04:56:50.347Z,8.9
2023-05-07T05:02:43.367Z,9
2023-05-07T05:08:36.099Z,9.5
2023-05-07T05:14:27.956Z,10.1
2023-05-07T05:20:21.020Z,10.5
2023-05-07T05:26:12.428Z,11.1
2023-05-07T05:32:05.894Z,11.5
2023-05-07T05:37:58.001Z,11.5
2023-05-07T05:43:50.276Z,12.5
2023-05-07T05:49:29.070Z,12.6
2023-05-07T05:55:22.013Z,13
2023-05-07T06:01:14.072Z,12.7
2023-05-07T06:07:06.267Z,13.1
2023-05-07T06:12:58.291Z,13.7
2023-05-07T06:18:51.161Z,14.4
2023-05-07T06:24:44.380Z,14.8
2023-05-07T06:30:35.850Z,14.8
2023-05-07T06:36:29.053Z,15.8
2023-05-07T06:42:20.758Z,15.8
2023-05-07T06:48:13.211Z,15.8
2023-05-07T06:53:50.709Z,16.7
2023-05-07T06:59:43.521Z,17.4
2023-05-07T07:05:36.849Z,17.4
2023-05-07T07:11:29.059Z,17.5
2023-05-07T07:17:21.865Z,17.9
2023-05-07T07:23:15.240Z,18.6
2023-05-07T07:29:09.256Z,19.4
2023-05-07T07:35:03.274Z,19.3
2023-05-07T07:41:06.296Z,19.8
2023-05-07T07:47:00.495Z,20.3
2023-05-07T07:53:10.459Z,20
2023-05-07T07:59:08.406Z,19.6
2023-05-07T08:04:50.606Z,19.8
2023-05-07T08:10:46.742Z,20.7
2023-05-07T08:16:41.305Z,21.1
2023-05-07T08:22:35.522Z,21.9
2023-05-07T08:28:30.275Z,22.1
2023-05-07T08:34:26.845Z,21.8
2023-05-07T08:40:23.135Z,22.3
2023-05-07T08:46:17.156Z,22.6
2023-05-07T08:52:12.002Z,21.3
2023-05-07T08:58:07.296Z,21.8
2023-05-07T09:04:01.836Z,22.8
2023-05-07T09:09:43.768Z,22.2
2023-05-07T09:21:19.196Z,21.8
2023-05-07T09:27:17.038Z,24.3
2023-05-07T09:33:12.600Z,23.7
2023-05-07T09:39:11.132Z,23.3
2023-05-07T09:45:04.516Z,24
2023-05-07T09:50:58.962Z,24.4
2023-05-07T09:56:55.112Z,25.7
2023-05-07T10:02:52.165Z,24.4
2023-05-07T10:08:45.973Z,25.9
2023-05-07T10:14:40.522Z,26.4
2023-05-07T10:20:37.454Z,27.1
2023-05-07T10:26:34.454Z,25.4
2023-05-07T10:32:29.733Z,25.9
2023-05-07T10:38:25.388Z,25.3
2023-05-07T10:44:04.579Z,25.8
2023-05-07T10:50:15.762Z,26.7
2023-05-07T10:55:56.889Z,25
2023-05-07T11:02:08.274Z,25.3
2023-05-07T11:08:03.340Z,24.9
2023-05-07T11:13:57.625Z,24.8
2023-05-07T11:19:55.576Z,24.9
2023-05-07T11:25:52.181Z,25.7
2023-05-07T11:31:46.966Z,26.1
2023-05-07T11:37:26.213Z,26.3
2023-05-07T11:43:25.166Z,25.3
2023-05-07T11:49:19.963Z,26.3
2023-05-07T11:55:15.989Z,27.5
2023-05-07T12:01:10.077Z,27.3
2023-05-07T12:07:05.721Z,26
2023-05-07T12:12:46.996Z,27.2
2023-05-07T12:18:27.473Z,27.3
2023-05-07T12:24:05.594Z,27.4
2023-05-07T12:29:30.236Z,28.4
2023-05-07T12:35:24.042Z,28.2
2023-05-07T12:41:17.578Z,28.1
2023-05-07T12:46:58.627Z,27.5
2023-05-07T12:52:37.353Z,25.6
2023-05-07T12:58:14.963Z,26.1
2023-05-07T13:03:55.436Z,26.3
2023-05-07T13:09:33.733Z,25.4
2023-05-07T13:15:14.343Z,26.2
2023-05-07T13:21:10.853Z,25.2
2023-05-07T13:27:02.713Z,26.4
2023-05-07T13:33:11.597Z,27.9
2023-05-07T13:39:05.737Z,26.3
2023-05-07T13:44:58.952Z,27.1
2023-05-07T13:50:50.838Z,28.3
2023-05-07T13:56:28.553Z,27.9
2023-05-07T14:02:21.064Z,27.4
2023-05-07T14:08:14.009Z,27.4
2023-05-07T14:14:09.763Z,27
2023-05-07T14:20:04.829Z,26.4
2023-05-07T14:26:13.831Z,27.4
2023-05-07T14:32:06.338Z,27.4
2023-05-07T14:37:58.166Z,26.7
2023-05-07T14:43:50.793Z,27.1
2023-05-07T14:49:43.267Z,26.1
2023-05-07T14:55:35.526Z,25
2023-05-07T15:01:29.360Z,26.1
2023-05-07T15:07:25.807Z,24.6
2023-05-07T15:13:17.317Z,25.5
2023-05-07T15:19:13.296Z,26.4
2023-05-07T15:25:05.000Z,25.6
2023-05-07T15:30:58.259Z,26.2
2023-05-07T15:36:51.018Z,27.5
2023-05-07T15:42:42.858Z,28.4
2023-05-07T15:48:34.556Z,27.7
2023-05-07T15:54:27.290Z,28.6
2023-05-07T16:00:19.581Z,28.3
2023-05-07T16:06:13.668Z,27.1
2023-05-07T16:12:06.604Z,27.1
2023-05-07T16:18:01.522Z,27.3
2023-05-07T16:23:53.228Z,25
2023-05-07T16:29:45.029Z,24.3
2023-05-07T16:35:38.740Z,23.4
2023-05-07T16:41:29.576Z,22
2023-05-07T16:47:24.749Z,21.5
2023-05-07T16:58:38.367Z,20.9
2023-05-07T17:04:47.725Z,20.7
2023-05-07T17:10:41.617Z,20.5
2023-05-07T17:16:33.326Z,20.1
2023-05-07T17:22:25.521Z,19.9
2023-05-07T17:28:16.839Z,19.6
2023-05-07T17:34:26.104Z,19.4
2023-05-07T17:40:01.778Z,19.1
2023-05-07T17:45:53.523Z,18.8
2023-05-07T17:51:54.491Z,18.8
2023-05-07T18:03:36.037Z,18.9
2023-05-07T18:09:12.076Z,18.8
2023-05-07T18:15:03.995Z,18.8
2023-05-07T18:20:58.496Z,18.5
2023-05-07T18:26:49.534Z,18.6
2023-05-07T18:32:44.934Z,18.4
2023-05-07T18:38:21.445Z,18.3
2023-05-07T18:44:13.349Z,18.1
2023-05-07T18:55:42.469Z,17.7
2023-05-07T19:01:33.027Z,17.6
2023-05-07T19:07:25.712Z,17.5
2023-05-07T19:13:29.630Z,17.4
2023-05-07T19:19:24.441Z,17.3
2023-05-07T19:25:16.854Z,17.3
2023-05-07T19:31:29.619Z,17.2
2023-05-07T19:43:00.450Z,16.8
2023-05-07T19:48:52.960Z,16.6
2023-05-07T19:54:47.291Z,16.5
2023-05-07T20:00:43.329Z,16.2
2023-05-07T20:06:36.573Z,16.2
2023-05-07T20:12:14.653Z,16.1
2023-05-07T20:17:54.311Z,15.9
2023-05-07T20:23:47.905Z,15.8
2023-05-07T20:29:24.046Z,15.8
2023-05-07T20:35:16.456Z,15.8
2023-05-07T20:41:08.548Z,15.8
2023-05-07T20:47:03.162Z,15.7
2023-05-07T20:52:55.676Z,15.6
2023-05-07T20:58:50.259Z,15.6
2023-05-07T21:04:43.324Z,15.3
2023-05-07T21:10:35.049Z,15.1
2023-05-07T21:16:26.837Z,15
2023-05-07T21:22:19.232Z,15
2023-05-07T21:28:10.834Z,15
2023-05-07T21:33:48.235Z,14.9
2023-05-07T21:39:40.119Z,14.8
2023-05-07T21:45:32.503Z,14.8
2023-05-07T21:51:24.497Z,14.7
2023-05-07T21:57:15.488Z,14.6
2023-05-07T22:03:24.073Z,14.5
2023-05-07T22:09:16.105Z,14.6
2023-05-07T22:15:09.354Z,14.5
2023-05-07T22:21:12.572Z,14.5
2023-05-07T22:27:05.478Z,14.4
2023-05-07T22:32:44.569Z,14.3
2023-05-07T22:38:36.694Z,14.3
2023-05-07T22:44:28.956Z,14.2
2023-05-07T22:50:21.702Z,14.2
2023-05-07T22:56:13.585Z,13.9
2023-05-07T23:02:05.206Z,13.6
2023-05-07T23:07:57.160Z,13.4
2023-05-07T23:13:49.102Z,13.1
2023-05-07T23:19:43.798Z,12.8
2023-05-07T23:25:35.462Z,12.4
2023-05-07T23:31:27.713Z,12.3
2023-05-07T23:37:19.403Z,11.3
2023-05-07T23:43:10.591Z,12.1
2023-05-07T23:49:01.479Z,12.1
2023-05-07T23:54:52.614Z,11
